Bay Shore, NY

12:19 AM EDT on September 22, 2014 (GMT -0400)
Smithtown / St.. James area | Change Station
CLOSE
Current Station
Personal Weather Station
Location: Smithtown, NY
Elevation: 131 ft
Nearby Weather Stations

Elev 131 ft 40.85 °N, 73.17 °W | Updated 8 minutes ago

Partly Cloudy
Partly Cloudy
67.3 °F
Feels Like 67.3 °F
N
0.0
Wind Variable Wind from SW

Today
High -- | Low -- °F
--% Chance of Precip.
Yesterday
High -- | Low -- °F
Precip. -- in
6:40 AM 6:50 PM
Waning Crescent, 4% visible
Pressure 29.60 in
Visibility 8.0 miles
Clouds Scattered Clouds 500 ft
Mostly Cloudy 8500 ft
Dew Point 67 °F
Humidity 99%
Rainfall 0.00 in
Snow Depth Not available.
UV 0 out of 12
Pollen 2.70 out of 12
Ozone Good
Flu Activity Not available.
SPECI KISP 220408Z AUTO 22007KT 8SM SCT005 BKN085 21/19 A2960 RMK AO2

More Conditions Fewer Conditions

Pressure 29.60 in
Visibility 8.0 miles
Clouds Scattered Clouds 500 ft
Mostly Cloudy 8500 ft
Dew Point 67 °F
Humidity 99%
Rainfall 0.00 in
Snow Depth Not available.
UV 0 out of 12
Pollen 2.70 out of 12
Ozone Good
Flu Activity Not available.
SPECI KISP 220408Z AUTO 22007KT 8SM SCT005 BKN085 21/19 A2960 RMK AO2

More Conditions Fewer Conditions

Nowcast | as of 9:55 PM EDT on September 21, 2014

Patchy dense fog will reduce visibilities to around one quarter of a mile at times. The fog will lift from west to east after the passage of a cold front overnight. Extra caution should be used while traveling.

×

10-Day Weather Forecast

Almanac

Astronomy

Sep. 22, 2014 Rise Set
Actual Time 6:40 AM EDT 6:50 PM EDT
Civil Twilight 6:13 AM EDT 7:17 PM EDT
Nautical Twilight 5:41 AM EDT 7:49 PM EDT
Astronomical Twilight 5:08 AM EDT 8:21 PM EDT
Moon 5:06 AM EDT 5:56 PM EDT
Length of Visible Light 13h 04m
Length of Day
12h 09m
Tomorrow will be 2m 41s shorter.
Waning Crescent, 4% of the Moon is Illuminated
Today
Waning Crescent
Sep 24
New
Oct 1
First Quarter
Oct 8
Full
Oct 15
Last Quarter

Yesterday's Extremes

State Highs State Lows

Community

WunderPhotos

Upload Photos

1,755,383 photos uploaded!

Nearby

Air Quality

  Air Quality AQ Index Pollutant
Yesterday Good
OZONE
Current Good
OZONE
Sunday Good
OZONE
Sunday Good
PM2.5
Monday Good
OZONE
Monday Good
PM2.5

Snow Depth

Station Depth Elevation
No new snow has been reported.

Earthquake Activity

City Distance Mag. Time & Date
No recent earthquake activity has been reported nearby.
Minimum magnitude displayed is 2.5.

Coastal Water Temperatures

Place Temperature
No Stations Reporting

Nearby Weather Stations